createdAt,value
2022-09-25T00:01:30.422Z,7.84
2022-09-25T00:03:59.538Z,7.81
2022-09-25T00:06:28.885Z,7.80
2022-09-25T00:08:57.888Z,7.80
2022-09-25T00:11:28.474Z,7.78
2022-09-25T00:13:58.845Z,7.78
2022-09-25T00:16:30.752Z,7.83
2022-09-25T00:19:18.949Z,7.88
2022-09-25T00:21:53.084Z,7.93
2022-09-25T00:24:22.534Z,7.96
2022-09-25T00:26:51.216Z,8.01
2022-09-25T00:29:20.695Z,8.03
2022-09-25T00:31:48.599Z,8.05
2022-09-25T00:34:16.762Z,8.03
2022-09-25T00:36:44.865Z,8.04
2022-09-25T00:39:13.044Z,8.06
2022-09-25T00:41:40.929Z,8.08
2022-09-25T00:44:45.977Z,8.11
2022-09-25T00:47:20.593Z,8.12
2022-09-25T00:49:49.563Z,8.16
2022-09-25T00:52:19.463Z,8.17
2022-09-25T00:55:07.551Z,8.24
2022-09-25T00:57:38.849Z,8.30
2022-09-25T01:00:12.350Z,8.28
2022-09-25T01:02:44.724Z,8.29
2022-09-25T01:05:17.443Z,8.33
2022-09-25T01:07:47.962Z,8.35
2022-09-25T01:10:18.627Z,8.41
2022-09-25T01:12:49.465Z,8.39
2022-09-25T01:15:21.074Z,8.34
2022-09-25T01:18:07.053Z,8.36
2022-09-25T01:20:53.139Z,8.39
2022-09-25T01:23:36.238Z,8.41
2022-09-25T01:26:22.232Z,8.41
2022-09-25T01:29:05.843Z,8.43
2022-09-25T01:32:04.982Z,8.44
2022-09-25T01:34:35.572Z,8.45
2022-09-25T01:37:13.689Z,8.49
2022-09-25T01:39:47.852Z,8.53
2022-09-25T01:42:23.487Z,8.52
2022-09-25T01:44:58.326Z,8.48
2022-09-25T01:47:34.651Z,8.49
2022-09-25T01:50:10.108Z,8.50
2022-09-25T01:52:43.185Z,8.48
2022-09-25T01:55:18.304Z,8.44
2022-09-25T01:58:14.854Z,8.47
2022-09-25T02:00:51.018Z,8.51
2022-09-25T02:03:31.957Z,8.50
2022-09-25T02:06:05.159Z,8.52
2022-09-25T02:08:41.204Z,8.50
2022-09-25T02:11:09.338Z,8.49
2022-09-25T02:13:46.626Z,8.49
2022-09-25T02:16:23.151Z,8.49
2022-09-25T02:19:10.562Z,8.46
2022-09-25T02:21:59.664Z,8.47
2022-09-25T02:24:59.256Z,8.47
2022-09-25T02:27:29.499Z,8.52
2022-09-25T02:29:58.506Z,8.52
2022-09-25T02:32:30.711Z,8.56
2022-09-25T02:35:02.724Z,8.59
2022-09-25T02:37:30.860Z,8.57
2022-09-25T02:40:02.319Z,8.57
2022-09-25T02:42:56.580Z,8.52
2022-09-25T02:45:54.282Z,8.54
2022-09-25T02:48:53.624Z,8.56
2022-09-25T02:52:10.898Z,8.57
2022-09-25T02:54:47.437Z,8.61
2022-09-25T02:57:24.519Z,8.58
2022-09-25T03:00:01.013Z,8.57
2022-09-25T03:02:30.380Z,8.58
2022-09-25T03:05:00.028Z,8.56
2022-09-25T03:07:28.064Z,8.56
2022-09-25T03:10:00.732Z,8.53
2022-09-25T03:12:29.066Z,8.55
2022-09-25T03:14:57.056Z,8.59
2022-09-25T03:17:25.575Z,8.57
2022-09-25T03:19:53.672Z,8.53
2022-09-25T03:22:21.853Z,8.59
2022-09-25T03:24:50.932Z,8.60
2022-09-25T03:27:19.814Z,8.60
2022-09-25T03:29:50.173Z,8.59
2022-09-25T03:32:18.226Z,8.56
2022-09-25T03:34:46.096Z,8.49
2022-09-25T03:37:14.410Z,8.48
2022-09-25T03:39:42.297Z,8.47
2022-09-25T03:42:10.328Z,8.49
2022-09-25T03:44:38.225Z,8.43
2022-09-25T03:47:07.378Z,8.43
2022-09-25T03:49:36.099Z,8.43
2022-09-25T03:52:04.528Z,8.46
2022-09-25T03:54:32.465Z,8.47
2022-09-25T03:57:00.368Z,8.45
2022-09-25T03:59:28.296Z,8.47
2022-09-25T04:01:56.334Z,8.49
2022-09-25T04:04:24.449Z,8.49
2022-09-25T04:06:52.454Z,8.49
2022-09-25T04:09:20.439Z,8.46
2022-09-25T04:11:48.498Z,8.48
2022-09-25T04:14:16.408Z,8.47
2022-09-25T04:16:45.589Z,8.49
2022-09-25T04:19:13.659Z,8.48
2022-09-25T04:21:41.917Z,8.49
2022-09-25T04:24:29.299Z,8.45
2022-09-25T04:26:57.300Z,8.51
2022-09-25T04:29:25.232Z,8.53
2022-09-25T04:32:11.337Z,8.55
2022-09-25T04:34:39.641Z,8.54
2022-09-25T04:37:07.737Z,8.57
2022-09-25T04:39:35.771Z,8.56
2022-09-25T04:42:06.243Z,8.58
2022-09-25T04:44:34.811Z,8.59
2022-09-25T04:47:04.477Z,8.60
2022-09-25T04:49:32.345Z,8.59
2022-09-25T04:52:01.631Z,8.62
2022-09-25T04:54:29.634Z,8.67
2022-09-25T04:56:57.831Z,8.72
2022-09-25T04:59:25.931Z,8.74
2022-09-25T05:01:53.961Z,8.71
2022-09-25T05:04:22.143Z,8.72
2022-09-25T05:06:51.612Z,8.79
2022-09-25T05:09:19.653Z,8.83
2022-09-25T05:11:47.658Z,8.87
2022-09-25T05:14:15.569Z,8.91
2022-09-25T05:16:43.777Z,8.97
2022-09-25T05:19:11.997Z,9.00
2022-09-25T05:21:40.079Z,9.02
2022-09-25T05:24:08.824Z,9.00
2022-09-25T05:26:37.500Z,9.03
2022-09-25T05:29:05.521Z,9.00
2022-09-25T05:31:34.685Z,9.00
2022-09-25T05:34:03.001Z,9.04
2022-09-25T05:36:31.483Z,9.05
2022-09-25T05:39:00.293Z,9.05
2022-09-25T05:41:28.525Z,9.14
2022-09-25T05:43:56.603Z,9.19
2022-09-25T05:46:24.580Z,9.25
2022-09-25T05:48:52.640Z,9.28
2022-09-25T05:51:20.981Z,9.30
2022-09-25T05:53:49.091Z,9.35
2022-09-25T05:56:17.434Z,9.38
2022-09-25T05:58:45.952Z,9.42
2022-09-25T06:01:14.885Z,9.51
2022-09-25T06:03:43.308Z,9.58
2022-09-25T06:06:11.636Z,9.63
2022-09-25T06:08:39.707Z,9.62
2022-09-25T06:11:08.257Z,9.75
2022-09-25T06:13:37.119Z,9.83
2022-09-25T06:16:13.700Z,9.77
2022-09-25T06:18:41.808Z,9.89
2022-09-25T06:21:09.855Z,10.02
2022-09-25T06:23:37.867Z,10.17
2022-09-25T06:26:07.784Z,10.26
2022-09-25T06:28:37.641Z,10.03
2022-09-25T06:31:06.682Z,10.15
2022-09-25T06:33:37.925Z,10.36
2022-09-25T06:36:08.549Z,10.47
2022-09-25T06:38:36.447Z,10.47
2022-09-25T06:41:04.662Z,10.54
2022-09-25T06:43:33.374Z,10.61
2022-09-25T06:46:02.694Z,10.69
2022-09-25T06:48:31.742Z,10.77
2022-09-25T06:51:01.068Z,10.86
2022-09-25T06:53:29.620Z,10.92
2022-09-25T06:55:59.724Z,11.05
2022-09-25T06:58:29.035Z,11.10
2022-09-25T07:00:57.511Z,11.13
2022-09-25T07:03:46.578Z,11.34
2022-09-25T07:06:28.047Z,11.43
2022-09-25T07:08:57.597Z,11.49
2022-09-25T07:11:28.373Z,11.54
2022-09-25T07:13:56.423Z,11.52
2022-09-25T07:16:27.382Z,11.61
2022-09-25T07:18:58.587Z,11.57
2022-09-25T07:21:30.641Z,11.83
2022-09-25T07:23:59.029Z,11.88
2022-09-25T07:26:29.526Z,11.97
2022-09-25T07:29:00.428Z,11.98
2022-09-25T07:31:33.194Z,11.96
2022-09-25T07:34:09.009Z,11.62
2022-09-25T07:36:42.801Z,11.91
2022-09-25T07:39:14.727Z,12.09
2022-09-25T07:41:48.024Z,11.89
2022-09-25T07:44:37.636Z,12.12
2022-09-25T07:47:04.009Z,12.10
2022-09-25T07:49:34.597Z,12.30
2022-09-25T07:52:02.624Z,12.46
2022-09-25T07:54:30.673Z,12.59
2022-09-25T07:56:59.385Z,12.70
2022-09-25T07:59:27.893Z,12.76
2022-09-25T08:01:59.058Z,12.87
2022-09-25T08:04:28.232Z,12.91
2022-09-25T08:07:00.230Z,12.87
2022-09-25T08:09:29.728Z,13.10
2022-09-25T08:11:58.018Z,13.11
2022-09-25T08:14:27.072Z,13.10
2022-09-25T08:16:56.293Z,13.25
2022-09-25T08:19:24.581Z,13.08
2022-09-25T08:21:52.673Z,13.17
2022-09-25T08:24:23.320Z,13.55
2022-09-25T08:26:51.581Z,13.73
2022-09-25T08:29:22.254Z,13.72
2022-09-25T08:31:51.325Z,13.69
2022-09-25T08:37:09.939Z,13.94
2022-09-25T08:39:39.214Z,13.92
2022-09-25T08:42:17.387Z,14.02
2022-09-25T08:45:21.123Z,14.24
2022-09-25T08:48:14.473Z,14.48
2022-09-25T08:50:43.628Z,14.49
2022-09-25T08:53:27.556Z,14.44
2022-09-25T08:56:14.932Z,14.57
2022-09-25T08:59:02.979Z,14.72
2022-09-25T09:01:43.904Z,14.46
2022-09-25T09:04:37.629Z,14.76
2022-09-25T09:07:28.239Z,14.67
2022-09-25T09:10:00.323Z,14.94
2022-09-25T09:12:47.897Z,15.08
2022-09-25T09:15:29.414Z,15.41
2022-09-25T09:18:01.582Z,15.31
2022-09-25T09:20:43.096Z,15.61
2022-09-25T09:23:16.464Z,16.00
2022-09-25T09:26:13.920Z,16.27
2022-09-25T09:29:06.598Z,16.19
2022-09-25T09:31:50.238Z,16.21
2022-09-25T09:35:06.767Z,16.42
2022-09-25T09:38:17.586Z,16.37
2022-09-25T09:41:10.178Z,16.38
2022-09-25T09:44:26.193Z,16.46
2022-09-25T09:47:19.434Z,16.60
2022-09-25T09:49:54.944Z,16.81
2022-09-25T09:52:29.511Z,16.79
2022-09-25T09:55:07.213Z,17.13
2022-09-25T09:57:48.272Z,17.17
2022-09-25T10:00:20.253Z,17.16
2022-09-25T10:03:28.029Z,17.15
2022-09-25T10:06:03.474Z,17.36
2022-09-25T10:08:35.381Z,17.44
2022-09-25T10:11:10.168Z,17.51
2022-09-25T10:13:39.808Z,17.18
2022-09-25T10:16:13.400Z,17.54
2022-09-25T10:19:01.438Z,17.28
2022-09-25T10:21:37.559Z,17.27
2022-09-25T10:24:07.253Z,17.49
2022-09-25T10:26:38.482Z,17.74
2022-09-25T10:29:10.083Z,18.18
2022-09-25T10:31:41.160Z,18.46
2022-09-25T10:34:22.586Z,18.26
2022-09-25T10:36:53.762Z,18.19
2022-09-25T10:39:44.008Z,18.12
2022-09-25T10:42:39.800Z,18.64
2022-09-25T10:45:23.083Z,19.05
2022-09-25T10:48:09.884Z,18.78
2022-09-25T10:50:37.853Z,19.04
2022-09-25T10:53:07.690Z,19.03
2022-09-25T10:55:39.966Z,18.87
2022-09-25T10:58:11.393Z,18.82
2022-09-25T11:00:53.621Z,18.74
2022-09-25T11:03:35.811Z,18.73
2022-09-25T11:06:33.126Z,18.49
2022-09-25T11:09:13.296Z,18.58
2022-09-25T11:11:44.194Z,18.59
2022-09-25T11:14:24.106Z,18.65
2022-09-25T11:16:58.236Z,18.61
2022-09-25T11:19:29.212Z,18.46
2022-09-25T11:22:25.035Z,18.31
2022-09-25T11:25:18.126Z,18.31
2022-09-25T11:28:10.491Z,18.11
2022-09-25T11:31:02.209Z,17.88
2022-09-25T11:33:47.448Z,17.75
2022-09-25T11:36:31.975Z,17.77
2022-09-25T11:39:29.975Z,17.74
2022-09-25T11:42:10.103Z,17.60
2022-09-25T11:44:43.784Z,17.63
2022-09-25T11:47:28.420Z,17.61
2022-09-25T11:49:59.770Z,17.58
2022-09-25T11:53:06.386Z,17.57
2022-09-25T11:55:57.905Z,17.60
2022-09-25T11:58:36.998Z,17.62
2022-09-25T12:01:26.770Z,17.67
2022-09-25T12:04:02.819Z,17.59
2022-09-25T12:06:55.454Z,17.71
2022-09-25T12:10:04.067Z,17.77
2022-09-25T12:13:10.237Z,17.90
2022-09-25T12:15:55.552Z,17.76
2022-09-25T12:18:38.949Z,17.79
2022-09-25T12:21:24.692Z,18.00
2022-09-25T12:24:17.038Z,18.13
2022-09-25T12:27:00.651Z,18.17
2022-09-25T12:29:39.912Z,18.24
2022-09-25T12:32:32.740Z,18.31
2022-09-25T12:35:45.058Z,18.35
2022-09-25T12:38:18.982Z,18.40
2022-09-25T12:40:53.019Z,18.52
2022-09-25T12:43:33.624Z,18.67
2022-09-25T12:46:22.654Z,18.47
2022-09-25T12:49:17.242Z,18.66
2022-09-25T12:51:53.666Z,18.70
2022-09-25T12:54:38.308Z,18.58
2022-09-25T12:57:27.976Z,18.66
2022-09-25T13:00:01.347Z,18.80
2022-09-25T13:02:56.690Z,18.86
2022-09-25T13:05:34.240Z,18.79
2022-09-25T13:08:25.580Z,18.86
2022-09-25T13:11:20.315Z,18.82
2022-09-25T13:13:56.144Z,18.95
2022-09-25T13:16:24.933Z,19.03
2022-09-25T13:19:28.880Z,19.00
2022-09-25T13:22:10.237Z,18.89
2022-09-25T13:24:52.146Z,18.78
2022-09-25T13:27:24.429Z,18.52
2022-09-25T13:29:57.329Z,18.54
2022-09-25T13:32:35.271Z,18.62
2022-09-25T13:35:19.604Z,18.86
2022-09-25T13:37:49.892Z,18.90
2022-09-25T13:40:40.122Z,18.80
2022-09-25T13:43:28.860Z,18.92
2022-09-25T13:46:33.805Z,19.09
2022-09-25T13:49:34.433Z,19.10
2022-09-25T13:52:02.793Z,19.16
2022-09-25T13:54:34.295Z,19.14
2022-09-25T13:57:04.340Z,18.98
2022-09-25T13:59:37.691Z,19.12
2022-09-25T14:02:47.062Z,19.22
2022-09-25T14:05:25.360Z,19.50
2022-09-25T14:08:01.590Z,19.73
2022-09-25T14:10:30.661Z,19.63
2022-09-25T14:13:06.065Z,19.21
2022-09-25T14:15:40.630Z,19.04
2022-09-25T14:18:28.071Z,18.71
2022-09-25T14:21:00.730Z,18.88
2022-09-25T14:23:33.514Z,18.64
2022-09-25T14:26:07.961Z,18.77
2022-09-25T14:28:47.446Z,18.67
2022-09-25T14:31:32.622Z,18.72
2022-09-25T14:34:30.218Z,18.91
2022-09-25T14:37:16.169Z,18.72
2022-09-25T14:39:54.160Z,18.68
2022-09-25T14:42:40.821Z,18.75
2022-09-25T14:45:55.723Z,18.68
2022-09-25T14:48:56.565Z,18.55
2022-09-25T14:51:40.498Z,18.43
2022-09-25T14:54:16.099Z,18.27
2022-09-25T14:56:50.259Z,18.15
2022-09-25T14:59:29.205Z,18.02
2022-09-25T15:02:00.927Z,17.92
2022-09-25T15:04:35.108Z,17.80
2022-09-25T15:07:08.267Z,17.65
2022-09-25T15:09:48.399Z,17.57
2022-09-25T15:12:21.204Z,17.43
2022-09-25T15:15:13.610Z,17.36
2022-09-25T15:17:58.085Z,17.21
2022-09-25T15:20:34.795Z,17.08
2022-09-25T15:23:13.929Z,17.07
2022-09-25T15:25:45.677Z,17.01
2022-09-25T15:28:26.420Z,16.89
2022-09-25T15:31:01.009Z,16.80
2022-09-25T15:33:34.847Z,16.77
2022-09-25T15:36:24.018Z,16.70
2022-09-25T15:38:54.705Z,16.60
2022-09-25T15:41:26.440Z,16.52
2022-09-25T15:44:14.689Z,16.46
2022-09-25T15:46:50.046Z,16.35
2022-09-25T15:49:40.578Z,16.31
2022-09-25T15:52:36.513Z,16.23
2022-09-25T15:55:16.674Z,16.20
2022-09-25T15:57:46.092Z,16.15
2022-09-25T16:00:39.317Z,16.11
2022-09-25T16:03:34.035Z,16.01
2022-09-25T16:06:03.964Z,15.96
2022-09-25T16:08:36.833Z,15.91
2022-09-25T16:11:31.892Z,15.84
2022-09-25T16:14:37.256Z,15.76
2022-09-25T16:17:17.356Z,15.70
2022-09-25T16:20:02.450Z,15.67
2022-09-25T16:22:38.411Z,15.64
2022-09-25T16:25:45.559Z,15.60
2022-09-25T16:28:24.852Z,15.53
2022-09-25T16:31:01.141Z,15.46
2022-09-25T16:33:40.014Z,15.40
2022-09-25T16:36:17.612Z,15.31
2022-09-25T16:39:14.269Z,15.25
2022-09-25T16:41:49.455Z,15.19
2022-09-25T16:44:38.675Z,15.13
2022-09-25T16:47:29.034Z,15.06
2022-09-25T16:49:59.808Z,15.01
2022-09-25T16:52:32.272Z,14.97
2022-09-25T16:55:01.059Z,14.94
2022-09-25T16:57:29.414Z,14.90
2022-09-25T16:59:58.492Z,14.83
2022-09-25T17:02:37.975Z,14.76
2022-09-25T17:05:29.025Z,14.71
2022-09-25T17:08:06.231Z,14.66
2022-09-25T17:10:34.298Z,14.62
2022-09-25T17:13:02.962Z,14.58
2022-09-25T17:15:36.323Z,14.55
2022-09-25T17:18:13.740Z,14.50
2022-09-25T17:20:42.053Z,14.43
2022-09-25T17:23:11.760Z,14.37
2022-09-25T17:26:02.367Z,14.34
2022-09-25T17:28:33.063Z,14.29
2022-09-25T17:31:01.513Z,14.24
2022-09-25T17:33:30.512Z,14.21
2022-09-25T17:36:04.210Z,14.18
2022-09-25T17:38:34.191Z,14.16
2022-09-25T17:41:06.033Z,14.14
2022-09-25T17:43:34.550Z,14.16
2022-09-25T17:46:02.754Z,14.16
2022-09-25T17:48:31.961Z,14.14
2022-09-25T17:51:17.173Z,14.13
2022-09-25T17:53:45.611Z,14.11
2022-09-25T17:56:16.798Z,14.10
2022-09-25T17:58:45.538Z,14.05
2022-09-25T18:01:25.219Z,14.06
2022-09-25T18:03:56.027Z,14.04
2022-09-25T18:06:27.393Z,14.01
2022-09-25T18:08:56.454Z,13.98
2022-09-25T18:11:25.494Z,13.94
2022-09-25T18:13:58.112Z,13.91
2022-09-25T18:16:29.918Z,13.91
2022-09-25T18:19:17.587Z,13.92
2022-09-25T18:22:04.029Z,13.92
2022-09-25T18:24:32.261Z,13.93
2022-09-25T18:27:01.577Z,13.91
2022-09-25T18:29:29.567Z,13.91
2022-09-25T18:31:59.672Z,13.89
2022-09-25T18:34:29.677Z,13.87
2022-09-25T18:36:57.807Z,13.84
2022-09-25T18:39:25.739Z,13.80
2022-09-25T18:41:53.954Z,13.76
2022-09-25T18:44:23.694Z,13.67
2022-09-25T18:46:53.108Z,13.62
2022-09-25T18:49:24.216Z,13.57
2022-09-25T18:51:52.159Z,13.57
2022-09-25T18:54:21.257Z,13.57
2022-09-25T18:56:49.585Z,13.51
2022-09-25T18:59:17.639Z,13.49
2022-09-25T19:01:45.891Z,13.45
2022-09-25T19:04:17.049Z,13.42
2022-09-25T19:06:45.245Z,13.39
2022-09-25T19:09:17.081Z,13.37
2022-09-25T19:11:45.820Z,13.34
2022-09-25T19:14:16.747Z,13.31
2022-09-25T19:16:44.821Z,13.29
2022-09-25T19:19:13.474Z,13.26
2022-09-25T19:21:41.781Z,13.22
2022-09-25T19:24:09.750Z,13.15
2022-09-25T19:26:41.693Z,13.10
2022-09-25T19:29:10.722Z,13.08
2022-09-25T19:31:38.870Z,13.03
2022-09-25T19:34:06.866Z,12.97
2022-09-25T19:36:35.286Z,12.91
2022-09-25T19:39:04.358Z,12.85
2022-09-25T19:41:35.740Z,12.79
2022-09-25T19:44:12.920Z,12.74
2022-09-25T19:46:43.429Z,12.67
2022-09-25T19:49:13.768Z,12.58
2022-09-25T19:51:42.709Z,12.50
2022-09-25T19:54:12.917Z,12.41
2022-09-25T19:56:42.342Z,12.33
2022-09-25T19:59:15.634Z,12.27
2022-09-25T20:01:45.458Z,12.23
2022-09-25T20:04:18.621Z,12.18
2022-09-25T20:06:48.824Z,12.12
2022-09-25T20:09:19.444Z,12.08
2022-09-25T20:11:47.441Z,12.03
2022-09-25T20:14:15.495Z,11.97
2022-09-25T20:16:43.640Z,11.91
2022-09-25T20:19:12.294Z,11.87
2022-09-25T20:21:41.807Z,11.82
2022-09-25T20:24:10.235Z,11.79
2022-09-25T20:26:38.905Z,11.77
2022-09-25T20:29:09.805Z,11.74
2022-09-25T20:31:40.006Z,11.74
2022-09-25T20:34:14.973Z,11.72
2022-09-25T20:36:43.877Z,11.69
2022-09-25T20:39:19.811Z,11.67
2022-09-25T20:41:50.231Z,11.66
2022-09-25T20:44:20.246Z,11.65
2022-09-25T20:46:49.128Z,11.63
2022-09-25T20:49:20.431Z,11.61
2022-09-25T20:51:48.542Z,11.60
2022-09-25T20:54:16.750Z,11.61
2022-09-25T20:56:45.716Z,11.59
2022-09-25T20:59:14.827Z,11.57
2022-09-25T21:01:43.596Z,11.57
2022-09-25T21:04:13.064Z,11.56
2022-09-25T21:06:41.835Z,11.52
2022-09-25T21:09:23.697Z,11.44
2022-09-25T21:11:55.623Z,11.36
2022-09-25T21:14:27.322Z,11.31
2022-09-25T21:17:01.770Z,11.26
2022-09-25T21:19:30.612Z,11.24
2022-09-25T21:21:58.659Z,11.24
2022-09-25T21:24:27.559Z,11.26
2022-09-25T21:26:56.658Z,11.26
2022-09-25T21:29:24.553Z,11.26
2022-09-25T21:31:54.043Z,11.20
2022-09-25T21:34:22.073Z,11.20
2022-09-25T21:36:49.988Z,11.16
2022-09-25T21:39:21.244Z,11.12
2022-09-25T21:41:51.978Z,11.09
2022-09-25T21:44:20.801Z,11.05
2022-09-25T21:46:48.840Z,11.02
2022-09-25T21:49:22.079Z,11.02
2022-09-25T21:51:51.121Z,11.01
2022-09-25T21:54:19.463Z,11.00
2022-09-25T21:56:49.155Z,10.97
2022-09-25T21:59:17.304Z,10.95
2022-09-25T22:01:45.554Z,10.92
2022-09-25T22:04:15.038Z,10.90
2022-09-25T22:06:47.514Z,10.89
2022-09-25T22:09:18.375Z,10.89
2022-09-25T22:11:48.112Z,10.91
2022-09-25T22:14:17.494Z,10.90
2022-09-25T22:16:48.739Z,10.90
2022-09-25T22:19:24.383Z,10.90
2022-09-25T22:21:54.053Z,10.93
2022-09-25T22:24:22.790Z,10.92
2022-09-25T22:26:52.045Z,10.94
2022-09-25T22:29:21.052Z,10.95
2022-09-25T22:31:50.374Z,10.96
2022-09-25T22:34:21.623Z,10.96
2022-09-25T22:36:56.231Z,10.95
2022-09-25T22:39:28.542Z,10.97
2022-09-25T22:41:57.390Z,10.95
2022-09-25T22:44:26.565Z,10.91
2022-09-25T22:46:56.130Z,10.91
2022-09-25T22:49:24.219Z,10.95
2022-09-25T22:51:52.175Z,10.95
2022-09-25T22:54:20.700Z,10.95
2022-09-25T22:56:48.958Z,10.97
2022-09-25T22:59:18.660Z,10.98
2022-09-25T23:01:52.235Z,10.97
2022-09-25T23:04:22.778Z,10.96
2022-09-25T23:06:51.539Z,10.96
2022-09-25T23:09:26.120Z,10.99
2022-09-25T23:11:56.828Z,11.02
2022-09-25T23:14:29.550Z,11.05
2022-09-25T23:16:58.436Z,11.08
2022-09-25T23:19:27.866Z,11.12
2022-09-25T23:21:55.939Z,11.14
2022-09-25T23:24:24.877Z,11.15
2022-09-25T23:26:53.941Z,11.16
2022-09-25T23:29:22.525Z,11.17
2022-09-25T23:31:51.094Z,11.19
2022-09-25T23:34:22.412Z,11.19
2022-09-25T23:36:53.542Z,11.18
2022-09-25T23:39:21.510Z,11.15
2022-09-25T23:41:49.465Z,11.08
2022-09-25T23:44:17.637Z,11.07
2022-09-25T23:46:45.603Z,11.12
2022-09-25T23:49:14.379Z,11.13
2022-09-25T23:51:42.629Z,11.14
2022-09-25T23:54:10.841Z,11.15
2022-09-25T23:56:40.994Z,11.16
2022-09-25T23:59:11.777Z,11.19
